sensor_id;sensor_type;location;lat;lon;timestamp;temperature;humidity
49855;DHT22;35752;52.164;21.244;2023-04-01T00:00:55;10.20;99.90
49855;DHT22;35752;52.164;21.244;2023-04-01T00:03:22;10.10;99.90
49855;DHT22;35752;52.164;21.244;2023-04-01T00:05:48;10.20;99.90
49855;DHT22;35752;52.164;21.244;2023-04-01T00:08:14;10.20;99.90
49855;DHT22;35752;52.164;21.244;2023-04-01T00:10:40;10.20;99.90
49855;DHT22;35752;52.164;21.244;2023-04-01T00:13:07;10.20;99.90
49855;DHT22;35752;52.164;21.244;2023-04-01T00:15:33;10.20;99.90
49855;DHT22;35752;52.164;21.244;2023-04-01T00:17:58;10.20;99.90
49855;DHT22;35752;52.164;21.244;2023-04-01T00:20:24;10.20;99.90
49855;DHT22;35752;52.164;21.244;2023-04-01T00:22:50;10.20;99.90
49855;DHT22;35752;52.164;21.244;2023-04-01T00:25:16;10.20;99.90
49855;DHT22;35752;52.164;21.244;2023-04-01T00:27:42;10.20;99.90
49855;DHT22;35752;52.164;21.244;2023-04-01T00:30:08;10.10;99.90
49855;DHT22;35752;52.164;21.244;2023-04-01T00:32:34;10.00;99.90
49855;DHT22;35752;52.164;21.244;2023-04-01T00:35:00;10.00;99.90
49855;DHT22;35752;52.164;21.244;2023-04-01T00:37:27;9.90;99.90
49855;DHT22;35752;52.164;21.244;2023-04-01T00:39:53;9.90;99.90
49855;DHT22;35752;52.164;21.244;2023-04-01T00:42:20;9.90;99.90
49855;DHT22;35752;52.164;21.244;2023-04-01T00:44:50;9.90;99.90
49855;DHT22;35752;52.164;21.244;2023-04-01T00:47:16;9.90;99.90
49855;DHT22;35752;52.164;21.244;2023-04-01T00:49:45;9.90;99.90
49855;DHT22;35752;52.164;21.244;2023-04-01T00:52:14;9.90;99.90
49855;DHT22;35752;52.164;21.244;2023-04-01T00:54:43;10.00;99.90
49855;DHT22;35752;52.164;21.244;2023-04-01T00:57:27;9.90;99.90
49855;DHT22;35752;52.164;21.244;2023-04-01T00:59:54;9.90;99.90
49855;DHT22;35752;52.164;21.244;2023-04-01T01:02:21;9.90;99.90
49855;DHT22;35752;52.164;21.244;2023-04-01T01:04:46;9.90;99.90
49855;DHT22;35752;52.164;21.244;2023-04-01T01:07:27;9.90;99.90
49855;DHT22;35752;52.164;21.244;2023-04-01T01:12:35;10.00;99.90
49855;DHT22;35752;52.164;21.244;2023-04-01T01:32:02;9.90;99.90
49855;DHT22;35752;52.164;21.244;2023-04-01T01:37:31;9.80;99.90
49855;DHT22;35752;52.164;21.244;2023-04-01T01:40:01;9.90;99.90
49855;DHT22;35752;52.164;21.244;2023-04-01T01:42:28;9.80;99.90
49855;DHT22;35752;52.164;21.244;2023-04-01T01:44:56;9.80;99.90
49855;DHT22;35752;52.164;21.244;2023-04-01T01:47:23;9.70;99.90
49855;DHT22;35752;52.164;21.244;2023-04-01T01:49:51;9.70;99.90
49855;DHT22;35752;52.164;21.244;2023-04-01T01:52:17;9.70;99.90
49855;DHT22;35752;52.164;21.244;2023-04-01T01:54:51;9.70;99.90
49855;DHT22;35752;52.164;21.244;2023-04-01T01:57:21;9.60;99.90
49855;DHT22;35752;52.164;21.244;2023-04-01T01:59:48;9.50;99.90
49855;DHT22;35752;52.164;21.244;2023-04-01T02:02:17;9.50;99.90
49855;DHT22;35752;52.164;21.244;2023-04-01T02:04:45;9.50;99.90
49855;DHT22;35752;52.164;21.244;2023-04-01T02:07:16;9.40;99.90
49855;DHT22;35752;52.164;21.244;2023-04-01T02:09:43;9.40;99.90
49855;DHT22;35752;52.164;21.244;2023-04-01T02:12:12;9.40;99.90
49855;DHT22;35752;52.164;21.244;2023-04-01T02:17:18;9.40;99.90
49855;DHT22;35752;52.164;21.244;2023-04-01T02:22:24;9.40;99.90
49855;DHT22;35752;52.164;21.244;2023-04-01T02:24:57;9.30;99.90
49855;DHT22;35752;52.164;21.244;2023-04-01T02:27:24;9.30;99.90
49855;DHT22;35752;52.164;21.244;2023-04-01T02:29:51;9.30;99.90
49855;DHT22;35752;52.164;21.244;2023-04-01T02:32:18;9.30;99.90
49855;DHT22;35752;52.164;21.244;2023-04-01T02:34:44;9.30;99.90
49855;DHT22;35752;52.164;21.244;2023-04-01T02:37:12;9.30;99.90
49855;DHT22;35752;52.164;21.244;2023-04-01T02:39:38;9.40;99.90
49855;DHT22;35752;52.164;21.244;2023-04-01T02:42:04;9.30;99.90
49855;DHT22;35752;52.164;21.244;2023-04-01T02:44:29;9.30;99.90
49855;DHT22;35752;52.164;21.244;2023-04-01T02:46:55;9.30;99.90
49855;DHT22;35752;52.164;21.244;2023-04-01T02:49:21;9.40;99.90
49855;DHT22;35752;52.164;21.244;2023-04-01T02:51:46;9.40;99.90
49855;DHT22;35752;52.164;21.244;2023-04-01T02:54:12;9.40;99.90
49855;DHT22;35752;52.164;21.244;2023-04-01T02:56:38;9.40;99.90
49855;DHT22;35752;52.164;21.244;2023-04-01T02:59:04;9.50;99.90
49855;DHT22;35752;52.164;21.244;2023-04-01T03:01:29;9.50;99.90
49855;DHT22;35752;52.164;21.244;2023-04-01T03:03:55;9.50;99.90
49855;DHT22;35752;52.164;21.244;2023-04-01T03:06:21;9.50;99.90
49855;DHT22;35752;52.164;21.244;2023-04-01T03:08:47;9.50;99.90
49855;DHT22;35752;52.164;21.244;2023-04-01T03:11:12;9.50;99.90
49855;DHT22;35752;52.164;21.244;2023-04-01T03:13:38;9.50;99.90
49855;DHT22;35752;52.164;21.244;2023-04-01T03:16:04;9.50;99.90
49855;DHT22;35752;52.164;21.244;2023-04-01T03:18:29;9.40;99.90
49855;DHT22;35752;52.164;21.244;2023-04-01T03:20:55;9.40;99.90
49855;DHT22;35752;52.164;21.244;2023-04-01T03:23:20;9.40;99.90
49855;DHT22;35752;52.164;21.244;2023-04-01T03:25:47;9.40;99.90
49855;DHT22;35752;52.164;21.244;2023-04-01T03:28:13;9.40;99.90
49855;DHT22;35752;52.164;21.244;2023-04-01T03:30:39;9.40;99.90
49855;DHT22;35752;52.164;21.244;2023-04-01T03:33:06;9.40;99.90
49855;DHT22;35752;52.164;21.244;2023-04-01T03:35:32;9.40;99.90
49855;DHT22;35752;52.164;21.244;2023-04-01T03:37:57;9.40;99.90
49855;DHT22;35752;52.164;21.244;2023-04-01T03:40:23;9.40;99.90
49855;DHT22;35752;52.164;21.244;2023-04-01T03:42:49;9.30;99.90
49855;DHT22;35752;52.164;21.244;2023-04-01T03:45:15;9.30;99.90
49855;DHT22;35752;52.164;21.244;2023-04-01T03:47:41;9.50;99.90
49855;DHT22;35752;52.164;21.244;2023-04-01T03:50:07;9.40;99.90
49855;DHT22;35752;52.164;21.244;2023-04-01T03:52:34;9.40;99.90
49855;DHT22;35752;52.164;21.244;2023-04-01T03:55:00;9.40;99.90
49855;DHT22;35752;52.164;21.244;2023-04-01T03:57:26;9.40;99.90
49855;DHT22;35752;52.164;21.244;2023-04-01T03:59:52;9.40;99.90
49855;DHT22;35752;52.164;21.244;2023-04-01T04:02:18;9.30;99.90
49855;DHT22;35752;52.164;21.244;2023-04-01T04:04:44;9.30;99.90
49855;DHT22;35752;52.164;21.244;2023-04-01T04:07:11;9.30;99.90
49855;DHT22;35752;52.164;21.244;2023-04-01T04:09:37;9.30;99.90
49855;DHT22;35752;52.164;21.244;2023-04-01T04:12:03;9.10;99.90
49855;DHT22;35752;52.164;21.244;2023-04-01T04:14:28;9.20;99.90
49855;DHT22;35752;52.164;21.244;2023-04-01T04:16:54;9.20;99.90
49855;DHT22;35752;52.164;21.244;2023-04-01T04:19:19;9.10;99.90
49855;DHT22;35752;52.164;21.244;2023-04-01T04:21:45;9.10;99.90
49855;DHT22;35752;52.164;21.244;2023-04-01T04:24:11;9.20;99.90
49855;DHT22;35752;52.164;21.244;2023-04-01T04:26:36;9.20;99.90
49855;DHT22;35752;52.164;21.244;2023-04-01T04:29:02;9.30;99.90
49855;DHT22;35752;52.164;21.244;2023-04-01T04:31:28;9.30;99.90
49855;DHT22;35752;52.164;21.244;2023-04-01T04:33:54;9.40;99.90
49855;DHT22;35752;52.164;21.244;2023-04-01T04:36:20;9.40;99.90
49855;DHT22;35752;52.164;21.244;2023-04-01T04:38:46;9.40;99.90
49855;DHT22;35752;52.164;21.244;2023-04-01T04:41:14;9.40;99.90
49855;DHT22;35752;52.164;21.244;2023-04-01T04:43:41;9.40;99.90
49855;DHT22;35752;52.164;21.244;2023-04-01T04:46:08;9.40;99.90
49855;DHT22;35752;52.164;21.244;2023-04-01T04:48:35;9.50;99.90
49855;DHT22;35752;52.164;21.244;2023-04-01T04:51:00;9.50;99.90
49855;DHT22;35752;52.164;21.244;2023-04-01T04:53:26;9.50;99.90
49855;DHT22;35752;52.164;21.244;2023-04-01T04:55:52;9.50;99.90
49855;DHT22;35752;52.164;21.244;2023-04-01T04:58:18;9.50;99.90
49855;DHT22;35752;52.164;21.244;2023-04-01T05:00:44;9.50;99.90
49855;DHT22;35752;52.164;21.244;2023-04-01T05:03:11;9.60;99.90
49855;DHT22;35752;52.164;21.244;2023-04-01T05:05:38;9.70;99.90
49855;DHT22;35752;52.164;21.244;2023-04-01T05:08:04;9.80;99.90
49855;DHT22;35752;52.164;21.244;2023-04-01T05:10:29;9.80;99.90
49855;DHT22;35752;52.164;21.244;2023-04-01T05:12:56;9.80;99.90
49855;DHT22;35752;52.164;21.244;2023-04-01T05:15:21;9.80;99.90
49855;DHT22;35752;52.164;21.244;2023-04-01T05:17:47;9.80;99.90
49855;DHT22;35752;52.164;21.244;2023-04-01T05:20:13;9.80;99.90
49855;DHT22;35752;52.164;21.244;2023-04-01T05:22:39;9.80;99.90
49855;DHT22;35752;52.164;21.244;2023-04-01T05:25:05;9.90;99.90
49855;DHT22;35752;52.164;21.244;2023-04-01T05:27:31;9.90;99.90
49855;DHT22;35752;52.164;21.244;2023-04-01T05:29:57;10.00;99.90
49855;DHT22;35752;52.164;21.244;2023-04-01T05:32:23;10.00;99.90
49855;DHT22;35752;52.164;21.244;2023-04-01T05:34:52;10.10;99.90
49855;DHT22;35752;52.164;21.244;2023-04-01T05:37:18;10.00;99.90
49855;DHT22;35752;52.164;21.244;2023-04-01T05:39:43;10.00;99.90
49855;DHT22;35752;52.164;21.244;2023-04-01T05:42:09;10.10;99.90
49855;DHT22;35752;52.164;21.244;2023-04-01T05:44:35;10.10;99.90
49855;DHT22;35752;52.164;21.244;2023-04-01T05:47:02;10.20;99.90
49855;DHT22;35752;52.164;21.244;2023-04-01T05:49:28;10.20;99.90
49855;DHT22;35752;52.164;21.244;2023-04-01T05:51:54;10.30;99.90
49855;DHT22;35752;52.164;21.244;2023-04-01T05:54:20;10.20;99.90
49855;DHT22;35752;52.164;21.244;2023-04-01T05:56:45;10.20;99.90
49855;DHT22;35752;52.164;21.244;2023-04-01T05:59:11;10.30;99.90
49855;DHT22;35752;52.164;21.244;2023-04-01T06:01:38;10.30;99.90
49855;DHT22;35752;52.164;21.244;2023-04-01T06:04:03;10.40;99.90
49855;DHT22;35752;52.164;21.244;2023-04-01T06:06:30;10.50;99.90
49855;DHT22;35752;52.164;21.244;2023-04-01T06:09:04;10.50;99.90
49855;DHT22;35752;52.164;21.244;2023-04-01T06:14:42;10.50;99.90
49855;DHT22;35752;52.164;21.244;2023-04-01T06:39:22;10.50;99.90
49855;DHT22;35752;52.164;21.244;2023-04-01T06:42:21;10.40;99.90
49855;DHT22;35752;52.164;21.244;2023-04-01T06:53:17;10.50;99.90
49855;DHT22;35752;52.164;21.244;2023-04-01T06:55:48;10.50;99.90
49855;DHT22;35752;52.164;21.244;2023-04-01T07:00:44;10.50;99.90
49855;DHT22;35752;52.164;21.244;2023-04-01T07:05:52;10.60;99.90
49855;DHT22;35752;52.164;21.244;2023-04-01T07:08:22;10.60;99.90
49855;DHT22;35752;52.164;21.244;2023-04-01T07:11:01;10.50;99.90
49855;DHT22;35752;52.164;21.244;2023-04-01T07:16:12;10.60;99.90
49855;DHT22;35752;52.164;21.244;2023-04-01T07:18:50;10.70;99.90
49855;DHT22;35752;52.164;21.244;2023-04-01T07:21:28;10.80;99.90
49855;DHT22;35752;52.164;21.244;2023-04-01T07:23:59;10.90;99.90
49855;DHT22;35752;52.164;21.244;2023-04-01T07:26:26;11.00;99.90
49855;DHT22;35752;52.164;21.244;2023-04-01T07:28:53;11.00;99.90
49855;DHT22;35752;52.164;21.244;2023-04-01T07:34:01;11.20;99.90
49855;DHT22;35752;52.164;21.244;2023-04-01T07:41:51;11.20;99.90
49855;DHT22;35752;52.164;21.244;2023-04-01T07:44:28;11.20;99.90
49855;DHT22;35752;52.164;21.244;2023-04-01T07:52:49;10.90;99.90
49855;DHT22;35752;52.164;21.244;2023-04-01T07:56:08;10.80;99.90
49855;DHT22;35752;52.164;21.244;2023-04-01T07:59:04;10.70;99.90
49855;DHT22;35752;52.164;21.244;2023-04-01T08:04:35;10.40;99.90
49855;DHT22;35752;52.164;21.244;2023-04-01T08:07:23;10.50;99.90
49855;DHT22;35752;52.164;21.244;2023-04-01T08:10:13;10.60;99.90
49855;DHT22;35752;52.164;21.244;2023-04-01T08:15:27;10.80;99.90
49855;DHT22;35752;52.164;21.244;2023-04-01T08:18:26;11.10;99.90
49855;DHT22;35752;52.164;21.244;2023-04-01T08:20:59;11.10;99.90
49855;DHT22;35752;52.164;21.244;2023-04-01T08:23:32;11.20;99.90
49855;DHT22;35752;52.164;21.244;2023-04-01T08:26:04;11.30;99.90
49855;DHT22;35752;52.164;21.244;2023-04-01T08:28:43;11.40;99.90
49855;DHT22;35752;52.164;21.244;2023-04-01T08:33:43;11.50;99.90
49855;DHT22;35752;52.164;21.244;2023-04-01T08:36:20;11.60;99.90
49855;DHT22;35752;52.164;21.244;2023-04-01T08:39:06;11.70;99.90
49855;DHT22;35752;52.164;21.244;2023-04-01T09:10:53;11.80;99.90
49855;DHT22;35752;52.164;21.244;2023-04-01T09:13:42;11.70;99.90
49855;DHT22;35752;52.164;21.244;2023-04-01T09:16:24;11.80;99.90
49855;DHT22;35752;52.164;21.244;2023-04-01T09:19:22;11.70;99.90
49855;DHT22;35752;52.164;21.244;2023-04-01T09:49:26;11.30;99.90
49855;DHT22;35752;52.164;21.244;2023-04-01T09:52:21;11.40;99.90
49855;DHT22;35752;52.164;21.244;2023-04-01T09:54:59;11.60;99.90
49855;DHT22;35752;52.164;21.244;2023-04-01T10:08:50;11.30;97.30
49855;DHT22;35752;52.164;21.244;2023-04-01T10:14:34;11.10;99.40
49855;DHT22;35752;52.164;21.244;2023-04-01T10:20:10;11.10;99.80
49855;DHT22;35752;52.164;21.244;2023-04-01T10:31:35;10.70;99.90
49855;DHT22;35752;52.164;21.244;2023-04-01T10:43:00;11.00;99.90
49855;DHT22;35752;52.164;21.244;2023-04-01T10:53:58;11.00;99.90
49855;DHT22;35752;52.164;21.244;2023-04-01T10:57:02;11.00;99.90
49855;DHT22;35752;52.164;21.244;2023-04-01T11:25:11;11.60;99.90
49855;DHT22;35752;52.164;21.244;2023-04-01T11:45:39;12.50;91.90
49855;DHT22;35752;52.164;21.244;2023-04-01T11:51:20;12.70;85.90
49855;DHT22;35752;52.164;21.244;2023-04-01T12:05:24;12.50;99.90
49855;DHT22;35752;52.164;21.244;2023-04-01T12:08:02;12.50;99.90
49855;DHT22;35752;52.164;21.244;2023-04-01T12:10:39;12.50;99.90
49855;DHT22;35752;52.164;21.244;2023-04-01T12:13:24;12.60;99.90
49855;DHT22;35752;52.164;21.244;2023-04-01T12:16:09;12.70;99.90
49855;DHT22;35752;52.164;21.244;2023-04-01T12:21:45;12.80;99.90
49855;DHT22;35752;52.164;21.244;2023-04-01T12:24:29;13.10;99.90
49855;DHT22;35752;52.164;21.244;2023-04-01T12:30:02;12.90;99.90
49855;DHT22;35752;52.164;21.244;2023-04-01T12:37:54;12.90;99.90
49855;DHT22;35752;52.164;21.244;2023-04-01T12:51:24;13.00;99.90
49855;DHT22;35752;52.164;21.244;2023-04-01T12:56:44;12.70;99.90
49855;DHT22;35752;52.164;21.244;2023-04-01T13:05:25;13.00;99.90
49855;DHT22;35752;52.164;21.244;2023-04-01T13:16:14;13.10;99.90
49855;DHT22;35752;52.164;21.244;2023-04-01T13:26:56;13.20;99.90
49855;DHT22;35752;52.164;21.244;2023-04-01T13:29:31;13.20;99.90
49855;DHT22;35752;52.164;21.244;2023-04-01T13:32:23;13.00;99.90
49855;DHT22;35752;52.164;21.244;2023-04-01T13:37:44;13.00;99.90
49855;DHT22;35752;52.164;21.244;2023-04-01T13:40:23;12.90;99.90
49855;DHT22;35752;52.164;21.244;2023-04-01T13:43:01;13.00;99.90
49855;DHT22;35752;52.164;21.244;2023-04-01T13:46:05;12.90;99.90
49855;DHT22;35752;52.164;21.244;2023-04-01T13:53:49;13.10;99.90
49855;DHT22;35752;52.164;21.244;2023-04-01T14:10:50;12.70;99.90
49855;DHT22;35752;52.164;21.244;2023-04-01T14:13:44;12.70;99.90
49855;DHT22;35752;52.164;21.244;2023-04-01T14:19:21;12.60;99.90
49855;DHT22;35752;52.164;21.244;2023-04-01T14:25:20;12.60;99.90
49855;DHT22;35752;52.164;21.244;2023-04-01T14:28:11;12.40;99.90
49855;DHT22;35752;52.164;21.244;2023-04-01T14:30:51;12.30;99.90
49855;DHT22;35752;52.164;21.244;2023-04-01T14:33:36;12.10;99.90
49855;DHT22;35752;52.164;21.244;2023-04-01T14:39:19;12.00;99.90
49855;DHT22;35752;52.164;21.244;2023-04-01T14:41:48;12.00;99.90
49855;DHT22;35752;52.164;21.244;2023-04-01T14:49:53;11.90;99.90
49855;DHT22;35752;52.164;21.244;2023-04-01T14:52:32;11.80;99.90
49855;DHT22;35752;52.164;21.244;2023-04-01T14:55:00;11.80;99.90
49855;DHT22;35752;52.164;21.244;2023-04-01T14:57:31;11.80;99.90
49855;DHT22;35752;52.164;21.244;2023-04-01T15:08:14;11.50;18.20
49855;DHT22;35752;52.164;21.244;2023-04-01T15:21:29;11.10;80.40
49855;DHT22;35752;52.164;21.244;2023-04-01T15:34:44;10.70;91.40
49855;DHT22;35752;52.164;21.244;2023-04-01T15:37:38;10.60;93.00
49855;DHT22;35752;52.164;21.244;2023-04-01T15:40:35;10.50;99.90
49855;DHT22;35752;52.164;21.244;2023-04-01T15:54:21;10.10;99.90
49855;DHT22;35752;52.164;21.244;2023-04-01T15:57:28;10.10;99.90
49855;DHT22;35752;52.164;21.244;2023-04-01T16:00:22;10.10;99.90
49855;DHT22;35752;52.164;21.244;2023-04-01T16:03:09;10.10;99.90
49855;DHT22;35752;52.164;21.244;2023-04-01T16:06:17;10.10;99.90
49855;DHT22;35752;52.164;21.244;2023-04-01T16:11:52;10.10;99.90
49855;DHT22;35752;52.164;21.244;2023-04-01T16:14:40;9.90;99.90
49855;DHT22;35752;52.164;21.244;2023-04-01T16:22:45;9.70;99.90
49855;DHT22;35752;52.164;21.244;2023-04-01T16:41:32;9.30;99.90
49855;DHT22;35752;52.164;21.244;2023-04-01T16:44:20;9.30;99.90
49855;DHT22;35752;52.164;21.244;2023-04-01T16:47:09;9.30;99.90
49855;DHT22;35752;52.164;21.244;2023-04-01T16:49:50;9.40;99.90
49855;DHT22;35752;52.164;21.244;2023-04-01T16:52:34;9.30;99.90
49855;DHT22;35752;52.164;21.244;2023-04-01T16:55:08;9.20;99.90
49855;DHT22;35752;52.164;21.244;2023-04-01T17:05:55;9.30;99.90
49855;DHT22;35752;52.164;21.244;2023-04-01T17:10:57;9.30;99.90
49855;DHT22;35752;52.164;21.244;2023-04-01T17:13:48;9.30;99.90
49855;DHT22;35752;52.164;21.244;2023-04-01T17:20:28;9.20;99.90
49855;DHT22;35752;52.164;21.244;2023-04-01T17:23:19;9.20;99.90
49855;DHT22;35752;52.164;21.244;2023-04-01T17:34:17;9.00;99.90
49855;DHT22;35752;52.164;21.244;2023-04-01T17:39:47;8.90;99.90
49855;DHT22;35752;52.164;21.244;2023-04-01T17:44:48;8.80;99.90
49855;DHT22;35752;52.164;21.244;2023-04-01T17:47:41;8.80;99.90
49855;DHT22;35752;52.164;21.244;2023-04-01T17:52:58;8.70;99.90
49855;DHT22;35752;52.164;21.244;2023-04-01T17:56:02;8.70;99.90
49855;DHT22;35752;52.164;21.244;2023-04-01T17:58:49;8.70;99.90
49855;DHT22;35752;52.164;21.244;2023-04-01T18:07:30;8.60;99.90
49855;DHT22;35752;52.164;21.244;2023-04-01T18:18:58;8.70;99.90
49855;DHT22;35752;52.164;21.244;2023-04-01T18:21:49;8.70;99.90
49855;DHT22;35752;52.164;21.244;2023-04-01T18:29:54;8.80;99.90
49855;DHT22;35752;52.164;21.244;2023-04-01T18:35:28;8.70;99.90
49855;DHT22;35752;52.164;21.244;2023-04-01T18:46:48;8.70;99.90
49855;DHT22;35752;52.164;21.244;2023-04-01T18:52:13;8.70;99.90
49855;DHT22;35752;52.164;21.244;2023-04-01T18:55:18;8.80;99.90
49855;DHT22;35752;52.164;21.244;2023-04-01T18:57:54;8.80;99.90
49855;DHT22;35752;52.164;21.244;2023-04-01T19:00:35;8.80;99.90
49855;DHT22;35752;52.164;21.244;2023-04-01T19:03:27;8.80;99.90
49855;DHT22;35752;52.164;21.244;2023-04-01T19:12:07;8.80;99.90
49855;DHT22;35752;52.164;21.244;2023-04-01T19:14:59;8.80;99.90
49855;DHT22;35752;52.164;21.244;2023-04-01T19:17:41;8.80;99.90
49855;DHT22;35752;52.164;21.244;2023-04-01T19:20:37;8.70;99.90
49855;DHT22;35752;52.164;21.244;2023-04-01T19:26:35;8.70;99.90
49855;DHT22;35752;52.164;21.244;2023-04-01T19:40:52;8.60;99.90
49855;DHT22;35752;52.164;21.244;2023-04-01T19:51:21;8.60;99.90
49855;DHT22;35752;52.164;21.244;2023-04-01T19:56:51;8.50;99.90
49855;DHT22;35752;52.164;21.244;2023-04-01T20:03:13;8.40;99.90
49855;DHT22;35752;52.164;21.244;2023-04-01T20:08:34;8.40;99.90
49855;DHT22;35752;52.164;21.244;2023-04-01T20:11:17;8.40;99.90
49855;DHT22;35752;52.164;21.244;2023-04-01T20:19:48;8.40;99.90
49855;DHT22;35752;52.164;21.244;2023-04-01T20:22:29;8.40;99.90
49855;DHT22;35752;52.164;21.244;2023-04-01T20:25:05;8.40;99.90
49855;DHT22;35752;52.164;21.244;2023-04-01T20:27:41;8.30;99.90
49855;DHT22;35752;52.164;21.244;2023-04-01T20:36:03;8.40;99.90
49855;DHT22;35752;52.164;21.244;2023-04-01T20:44:01;8.40;99.90
49855;DHT22;35752;52.164;21.244;2023-04-01T20:49:33;8.30;99.90
49855;DHT22;35752;52.164;21.244;2023-04-01T20:54:59;8.30;99.90
49855;DHT22;35752;52.164;21.244;2023-04-01T20:57:55;8.30;99.90
49855;DHT22;35752;52.164;21.244;2023-04-01T21:01:06;8.30;99.90
49855;DHT22;35752;52.164;21.244;2023-04-01T21:17:34;8.20;99.90
49855;DHT22;35752;52.164;21.244;2023-04-01T21:20:17;8.10;99.90
49855;DHT22;35752;52.164;21.244;2023-04-01T21:23:10;8.10;99.90
49855;DHT22;35752;52.164;21.244;2023-04-01T21:33:59;8.00;99.90
49855;DHT22;35752;52.164;21.244;2023-04-01T22:10:41;7.80;99.90
49855;DHT22;35752;52.164;21.244;2023-04-01T22:13:23;7.80;99.90
49855;DHT22;35752;52.164;21.244;2023-04-01T22:16:20;7.80;99.90
49855;DHT22;35752;52.164;21.244;2023-04-01T22:30:17;7.80;99.90
49855;DHT22;35752;52.164;21.244;2023-04-01T22:32:47;7.80;99.90
49855;DHT22;35752;52.164;21.244;2023-04-01T22:38:31;7.80;99.90
49855;DHT22;35752;52.164;21.244;2023-04-01T22:41:41;7.70;99.90
49855;DHT22;35752;52.164;21.244;2023-04-01T22:44:20;7.70;99.90
49855;DHT22;35752;52.164;21.244;2023-04-01T22:47:13;7.70;99.90
49855;DHT22;35752;52.164;21.244;2023-04-01T22:50:03;7.70;99.90
49855;DHT22;35752;52.164;21.244;2023-04-01T22:52:38;7.60;99.90
49855;DHT22;35752;52.164;21.244;2023-04-01T22:55:15;7.60;99.90
49855;DHT22;35752;52.164;21.244;2023-04-01T22:57:50;7.60;99.90
49855;DHT22;35752;52.164;21.244;2023-04-01T23:00:30;7.50;99.90
49855;DHT22;35752;52.164;21.244;2023-04-01T23:03:31;7.50;99.90
49855;DHT22;35752;52.164;21.244;2023-04-01T23:05:59;7.40;99.90
49855;DHT22;35752;52.164;21.244;2023-04-01T23:08:55;7.40;99.90
49855;DHT22;35752;52.164;21.244;2023-04-01T23:22:39;7.30;99.90
49855;DHT22;35752;52.164;21.244;2023-04-01T23:35:58;7.30;99.90
49855;DHT22;35752;52.164;21.244;2023-04-01T23:38:32;7.30;99.90
49855;DHT22;35752;52.164;21.244;2023-04-01T23:41:02;7.30;99.90
49855;DHT22;35752;52.164;21.244;2023-04-01T23:43:34;7.20;99.90
49855;DHT22;35752;52.164;21.244;2023-04-01T23:46:03;7.20;99.90
49855;DHT22;35752;52.164;21.244;2023-04-01T23:48:43;7.20;99.90
49855;DHT22;35752;52.164;21.244;2023-04-01T23:51:29;7.20;99.90
49855;DHT22;35752;52.164;21.244;2023-04-01T23:54:09;7.20;99.90
49855;DHT22;35752;52.164;21.244;2023-04-01T23:56:45;7.20;99.90
49855;DHT22;35752;52.164;21.244;2023-04-01T23:59:24;7.20;99.90
